createdAt,value
2022-08-28T00:00:55.835Z,1012.57
2022-08-28T00:01:55.856Z,1012.55
2022-08-28T00:02:55.909Z,1012.58
2022-08-28T00:03:55.914Z,1012.58
2022-08-28T00:04:55.978Z,1012.60
2022-08-28T00:05:55.967Z,1012.60
2022-08-28T00:06:55.997Z,1012.62
2022-08-28T00:07:56.017Z,1012.61
2022-08-28T00:08:56.039Z,1012.61
2022-08-28T00:09:56.072Z,1012.62
2022-08-28T00:10:56.097Z,1012.59
2022-08-28T00:11:56.121Z,1012.59
2022-08-28T00:12:56.145Z,1012.67
2022-08-28T00:13:56.794Z,1012.64
2022-08-28T00:14:56.206Z,1012.65
2022-08-28T00:15:56.329Z,1012.69
2022-08-28T00:16:56.290Z,1012.67
2022-08-28T00:17:56.280Z,1012.67
2022-08-28T00:18:56.305Z,1012.68
2022-08-28T00:19:56.335Z,1012.70
2022-08-28T00:20:56.361Z,1012.70
2022-08-28T00:21:56.388Z,1012.67
2022-08-28T00:22:56.409Z,1012.70
2022-08-28T00:23:56.439Z,1012.67
2022-08-28T00:24:56.466Z,1012.71
2022-08-28T00:25:56.492Z,1012.69
2022-08-28T00:26:56.519Z,1012.69
2022-08-28T00:27:56.545Z,1012.70
2022-08-28T00:28:56.569Z,1012.68
2022-08-28T00:29:56.595Z,1012.71
2022-08-28T00:30:56.682Z,1012.70
2022-08-28T00:31:56.649Z,1012.71
2022-08-28T00:32:56.678Z,1012.69
2022-08-28T00:33:56.702Z,1012.68
2022-08-28T00:34:56.729Z,1012.69
2022-08-28T00:35:56.756Z,1012.65
2022-08-28T00:36:56.780Z,1012.67
2022-08-28T00:37:56.808Z,1012.68
2022-08-28T00:38:56.839Z,1012.67
2022-08-28T00:39:56.893Z,1012.67
2022-08-28T00:40:56.885Z,1012.67
2022-08-28T00:41:58.020Z,1012.65
2022-08-28T00:42:56.937Z,1012.65
2022-08-28T00:43:56.966Z,1012.63
2022-08-28T00:44:56.996Z,1012.60
2022-08-28T00:45:57.015Z,1012.63
2022-08-28T00:46:57.106Z,1012.63
2022-08-28T00:47:57.097Z,1012.61
2022-08-28T00:48:57.097Z,1012.59
2022-08-28T00:49:57.125Z,1012.63
2022-08-28T00:51:00.399Z,1012.61
2022-08-28T00:51:57.181Z,1012.59
2022-08-28T00:52:57.204Z,1012.60
2022-08-28T00:53:59.032Z,1012.59
2022-08-28T00:54:59.346Z,1012.59
2022-08-28T00:55:57.281Z,1012.61
2022-08-28T00:56:57.306Z,1012.60
2022-08-28T00:57:57.333Z,1012.58
2022-08-28T00:58:57.365Z,1012.58
2022-08-28T00:59:57.389Z,1012.57
2022-08-28T01:00:57.427Z,1012.55
2022-08-28T01:01:57.470Z,1012.55
2022-08-28T01:02:57.518Z,1012.54
2022-08-28T01:03:57.494Z,1012.54
2022-08-28T01:04:57.523Z,1012.55
2022-08-28T01:05:57.568Z,1012.53
2022-08-28T01:06:57.569Z,1012.53
2022-08-28T01:07:57.598Z,1012.52
2022-08-28T01:08:57.626Z,1012.59
2022-08-28T01:09:57.649Z,1012.55
2022-08-28T01:10:57.680Z,1012.53
2022-08-28T01:11:57.707Z,1012.57
2022-08-28T01:12:57.739Z,1012.57
2022-08-28T01:13:57.759Z,1012.56
2022-08-28T01:14:57.784Z,1012.55
2022-08-28T01:15:57.911Z,1012.56
2022-08-28T01:16:57.839Z,1012.59
2022-08-28T01:17:57.863Z,1012.60
2022-08-28T01:18:57.890Z,1012.61
2022-08-28T01:19:57.916Z,1012.60
2022-08-28T01:20:57.945Z,1012.62
2022-08-28T01:21:57.969Z,1012.59
2022-08-28T01:22:57.990Z,1012.59
2022-08-28T01:23:58.022Z,1012.61
2022-08-28T01:24:58.049Z,1012.65
2022-08-28T01:25:58.075Z,1012.60
2022-08-28T01:26:58.100Z,1012.63
2022-08-28T01:27:58.125Z,1012.64
2022-08-28T01:28:58.153Z,1012.64
2022-08-28T01:29:58.178Z,1012.65
2022-08-28T01:30:58.309Z,1012.66
2022-08-28T01:31:58.232Z,1012.70
2022-08-28T01:32:58.259Z,1012.73
2022-08-28T01:33:58.284Z,1012.73
2022-08-28T01:34:58.312Z,1012.74
2022-08-28T01:35:58.337Z,1012.75
2022-08-28T01:36:58.507Z,1012.76
2022-08-28T01:37:58.391Z,1012.74
2022-08-28T01:38:58.418Z,1012.77
2022-08-28T01:39:58.493Z,1012.73
2022-08-28T01:40:58.471Z,1012.79
2022-08-28T01:41:58.498Z,1012.78
2022-08-28T01:42:58.524Z,1012.73
2022-08-28T01:43:58.546Z,1012.74
2022-08-28T01:44:58.576Z,1012.78
2022-08-28T01:45:58.640Z,1012.77
2022-08-28T01:46:58.625Z,1012.78
2022-08-28T01:47:58.678Z,1012.79
2022-08-28T01:48:58.678Z,1012.74
2022-08-28T01:49:58.704Z,1012.77
2022-08-28T01:50:58.729Z,1012.73
2022-08-28T01:51:58.767Z,1012.73
2022-08-28T01:52:58.784Z,1012.73
2022-08-28T01:53:58.816Z,1012.74
2022-08-28T01:54:58.835Z,1012.73
2022-08-28T01:55:58.864Z,1012.76
2022-08-28T01:56:58.885Z,1012.80
2022-08-28T01:57:58.916Z,1012.82
2022-08-28T01:58:58.939Z,1012.86
2022-08-28T01:59:58.969Z,1012.86
2022-08-28T02:00:58.993Z,1012.84
2022-08-28T02:01:59.101Z,1012.87
2022-08-28T02:02:59.046Z,1012.85
2022-08-28T02:03:59.109Z,1012.84
2022-08-28T02:04:59.093Z,1012.87
2022-08-28T02:05:59.124Z,1012.89
2022-08-28T02:06:59.143Z,1012.90
2022-08-28T02:07:59.171Z,1012.92
2022-08-28T02:08:59.197Z,1012.92
2022-08-28T02:09:59.227Z,1012.89
2022-08-28T02:10:59.252Z,1012.93
2022-08-28T02:11:59.278Z,1012.95
2022-08-28T02:12:59.427Z,1012.95
2022-08-28T02:13:59.327Z,1012.97
2022-08-28T02:14:59.354Z,1012.99
2022-08-28T02:15:59.428Z,1012.98
2022-08-28T02:16:59.403Z,1013.01
2022-08-28T02:17:59.432Z,1013.02
2022-08-28T02:18:59.455Z,1013.05
2022-08-28T02:19:59.489Z,1013.03
2022-08-28T02:20:59.511Z,1013.08
2022-08-28T02:21:59.535Z,1013.05
2022-08-28T02:22:59.564Z,1013.06
2022-08-28T02:23:59.589Z,1013.09
2022-08-28T02:24:59.614Z,1013.05
2022-08-28T02:25:59.642Z,1013.08
2022-08-28T02:26:59.665Z,1013.04
2022-08-28T02:27:59.692Z,1013.04
2022-08-28T02:28:59.732Z,1013.04
2022-08-28T02:29:59.748Z,1013.04
2022-08-28T02:30:59.842Z,1013.02
2022-08-28T02:31:59.795Z,1013.05
2022-08-28T02:32:59.820Z,1013.03
2022-08-28T02:33:59.850Z,1013.04
2022-08-28T02:34:59.872Z,1013.03
2022-08-28T02:35:59.899Z,1013.08
2022-08-28T02:36:59.927Z,1013.05
2022-08-28T02:38:00.454Z,1013.03
2022-08-28T02:38:59.973Z,1013.05
2022-08-28T02:40:00.063Z,1013.05
2022-08-28T02:41:00.027Z,1013.03
2022-08-28T02:42:00.054Z,1013.03
2022-08-28T02:43:00.081Z,1013.02
2022-08-28T02:44:00.102Z,1013.01
2022-08-28T02:45:00.130Z,1012.99
2022-08-28T02:46:00.247Z,1012.99
2022-08-28T02:47:00.185Z,1013.01
2022-08-28T02:48:00.209Z,1013.00
2022-08-28T02:49:00.231Z,1012.95
2022-08-28T02:50:00.277Z,1012.97
2022-08-28T02:51:00.281Z,1012.96
2022-08-28T02:52:00.320Z,1012.97
2022-08-28T02:53:00.344Z,1012.96
2022-08-28T02:54:00.362Z,1013.01
2022-08-28T02:55:00.387Z,1013.04
2022-08-28T02:56:00.419Z,1013.01
2022-08-28T02:57:00.436Z,1013.03
2022-08-28T02:58:00.470Z,1013.03
2022-08-28T02:59:00.493Z,1013.00
2022-08-28T03:00:00.522Z,1013.02
2022-08-28T03:01:00.558Z,1013.02
2022-08-28T03:02:00.570Z,1013.03
2022-08-28T03:03:00.643Z,1013.02
2022-08-28T03:04:00.622Z,1013.00
2022-08-28T03:05:00.640Z,1013.05
2022-08-28T03:06:00.668Z,1013.06
2022-08-28T03:07:00.698Z,1013.05
2022-08-28T03:08:00.724Z,1013.04
2022-08-28T03:09:00.747Z,1013.03
2022-08-28T03:10:00.787Z,1013.03
2022-08-28T03:11:00.800Z,1013.06
2022-08-28T03:12:00.824Z,1013.03
2022-08-28T03:13:00.849Z,1013.04
2022-08-28T03:14:00.877Z,1013.06
2022-08-28T03:15:00.904Z,1013.09
2022-08-28T03:16:00.931Z,1013.08
2022-08-28T03:17:01.004Z,1013.09
2022-08-28T03:18:00.981Z,1013.12
2022-08-28T03:19:01.008Z,1013.08
2022-08-28T03:20:01.033Z,1013.09
2022-08-28T03:21:01.059Z,1013.11
2022-08-28T03:22:01.086Z,1013.13
2022-08-28T03:23:01.108Z,1013.11
2022-08-28T03:24:01.133Z,1013.12
2022-08-28T03:25:01.156Z,1013.14
2022-08-28T03:26:01.185Z,1013.17
2022-08-28T03:27:01.212Z,1013.18
2022-08-28T03:28:01.237Z,1013.20
2022-08-28T03:29:01.263Z,1013.25
2022-08-28T03:30:01.287Z,1013.23
2022-08-28T03:31:01.353Z,1013.22
2022-08-28T03:32:01.344Z,1013.26
2022-08-28T03:33:01.365Z,1013.23
2022-08-28T03:34:01.398Z,1013.20
2022-08-28T03:35:01.420Z,1013.22
2022-08-28T03:36:01.443Z,1013.26
2022-08-28T03:37:01.483Z,1013.18
2022-08-28T03:38:01.517Z,1013.23
2022-08-28T03:39:01.523Z,1013.23
2022-08-28T03:40:01.565Z,1013.24
2022-08-28T03:41:01.583Z,1013.26
2022-08-28T03:42:01.599Z,1013.27
2022-08-28T03:43:01.629Z,1013.26
2022-08-28T03:44:01.649Z,1013.28
2022-08-28T03:45:01.674Z,1013.27
2022-08-28T03:46:01.728Z,1013.22
2022-08-28T03:47:01.730Z,1013.24
2022-08-28T03:48:01.768Z,1013.22
2022-08-28T03:49:01.782Z,1013.20
2022-08-28T03:50:01.806Z,1013.20
2022-08-28T03:51:01.834Z,1013.18
2022-08-28T03:52:01.862Z,1013.21
2022-08-28T03:53:01.890Z,1013.22
2022-08-28T03:54:01.909Z,1013.14
2022-08-28T03:55:01.937Z,1013.19
2022-08-28T03:56:01.978Z,1013.18
2022-08-28T03:57:01.990Z,1013.20
2022-08-28T03:58:02.014Z,1013.22
2022-08-28T03:59:02.041Z,1013.23
2022-08-28T04:00:02.085Z,1013.22
2022-08-28T04:01:02.155Z,1013.27
2022-08-28T04:02:02.120Z,1013.25
2022-08-28T04:03:02.194Z,1013.26
2022-08-28T04:04:02.186Z,1013.30
2022-08-28T04:05:02.196Z,1013.27
2022-08-28T04:06:02.223Z,1013.28
2022-08-28T04:07:02.251Z,1013.22
2022-08-28T04:08:02.273Z,1013.27
2022-08-28T04:09:02.297Z,1013.24
2022-08-28T04:10:02.327Z,1013.24
2022-08-28T04:11:02.373Z,1013.25
2022-08-28T04:12:02.375Z,1013.23
2022-08-28T04:13:02.401Z,1013.25
2022-08-28T04:14:02.429Z,1013.27
2022-08-28T04:15:02.458Z,1013.30
2022-08-28T04:16:02.482Z,1013.32
2022-08-28T04:17:02.538Z,1013.26
2022-08-28T04:18:02.561Z,1013.31
2022-08-28T04:19:02.558Z,1013.33
2022-08-28T04:20:02.582Z,1013.33
2022-08-28T04:21:02.608Z,1013.36
2022-08-28T04:22:02.687Z,1013.33
2022-08-28T04:23:02.659Z,1013.37
2022-08-28T04:24:04.920Z,1013.41
2022-08-28T04:25:02.708Z,1013.40
2022-08-28T04:26:02.738Z,1013.38
2022-08-28T04:27:02.761Z,1013.37
2022-08-28T04:28:02.831Z,1013.38
2022-08-28T04:29:02.811Z,1013.37
2022-08-28T04:30:02.843Z,1013.39
2022-08-28T04:31:02.865Z,1013.37
2022-08-28T04:32:03.069Z,1013.39
2022-08-28T04:33:02.911Z,1013.36
2022-08-28T04:34:02.938Z,1013.37
2022-08-28T04:35:02.978Z,1013.40
2022-08-28T04:36:02.990Z,1013.39
2022-08-28T04:37:03.015Z,1013.40
2022-08-28T04:38:12.576Z,1013.45
2022-08-28T04:39:03.065Z,1013.46
2022-08-28T04:40:03.156Z,1013.51
2022-08-28T04:41:03.112Z,1013.51
2022-08-28T04:42:03.140Z,1013.52
2022-08-28T04:43:03.167Z,1013.51
2022-08-28T04:44:03.196Z,1013.54
2022-08-28T04:45:03.217Z,1013.58
2022-08-28T04:46:03.319Z,1013.56
2022-08-28T04:47:03.268Z,1013.55
2022-08-28T04:48:03.371Z,1013.57
2022-08-28T04:49:03.320Z,1013.55
2022-08-28T04:50:03.349Z,1013.56
2022-08-28T04:51:03.371Z,1013.60
2022-08-28T04:52:03.393Z,1013.58
2022-08-28T04:53:03.418Z,1013.57
2022-08-28T04:54:03.445Z,1013.60
2022-08-28T04:55:03.482Z,1013.62
2022-08-28T04:56:03.498Z,1013.64
2022-08-28T04:57:06.404Z,1013.67
2022-08-28T04:58:03.545Z,1013.67
2022-08-28T04:59:03.576Z,1013.65
2022-08-28T05:00:03.607Z,1013.62
2022-08-28T05:01:03.682Z,1013.62
2022-08-28T05:02:03.680Z,1013.58
2022-08-28T05:03:03.673Z,1013.63
2022-08-28T05:04:03.743Z,1013.58
2022-08-28T05:05:03.725Z,1013.59
2022-08-28T05:06:03.746Z,1013.61
2022-08-28T05:07:03.774Z,1013.63
2022-08-28T05:08:03.800Z,1013.66
2022-08-28T05:09:03.820Z,1013.66
2022-08-28T05:10:03.847Z,1013.63
2022-08-28T05:11:03.890Z,1013.72
2022-08-28T05:12:03.900Z,1013.69
2022-08-28T05:13:03.925Z,1013.74
2022-08-28T05:14:03.951Z,1013.69
2022-08-28T05:15:03.976Z,1013.75
2022-08-28T05:16:04.053Z,1013.73
2022-08-28T05:17:04.030Z,1013.73
2022-08-28T05:18:04.053Z,1013.72
2022-08-28T05:19:04.079Z,1013.74
2022-08-28T05:20:04.101Z,1013.73
2022-08-28T05:21:04.137Z,1013.68
2022-08-28T05:22:04.154Z,1013.69
2022-08-28T05:23:04.177Z,1013.72
2022-08-28T05:24:04.201Z,1013.68
2022-08-28T05:25:04.227Z,1013.70
2022-08-28T05:26:04.254Z,1013.73
2022-08-28T05:27:04.278Z,1013.75
2022-08-28T05:28:04.305Z,1013.75
2022-08-28T05:29:04.328Z,1013.77
2022-08-28T05:30:04.355Z,1013.75
2022-08-28T05:31:04.383Z,1013.75
2022-08-28T05:32:04.406Z,1013.76
2022-08-28T05:33:04.435Z,1013.77
2022-08-28T05:34:04.470Z,1013.77
2022-08-28T05:35:04.481Z,1013.77
2022-08-28T05:36:04.529Z,1013.79
2022-08-28T05:37:04.534Z,1013.81
2022-08-28T05:38:04.562Z,1013.80
2022-08-28T05:39:04.586Z,1013.81
2022-08-28T05:40:04.707Z,1013.84
2022-08-28T05:41:04.638Z,1013.81
2022-08-28T05:42:04.664Z,1013.85
2022-08-28T05:43:04.685Z,1013.81
2022-08-28T05:44:04.717Z,1013.82
2022-08-28T05:45:04.744Z,1013.85
2022-08-28T05:46:04.830Z,1013.86
2022-08-28T05:47:04.789Z,1013.86
2022-08-28T05:48:04.818Z,1013.87
2022-08-28T05:49:09.125Z,1013.86
2022-08-28T05:50:04.868Z,1013.89
2022-08-28T05:51:04.896Z,1013.88
2022-08-28T05:52:04.919Z,1013.90
2022-08-28T05:53:04.967Z,1013.87
2022-08-28T05:54:04.972Z,1013.90
2022-08-28T05:55:04.998Z,1013.89
2022-08-28T05:56:05.027Z,1013.90
2022-08-28T05:57:05.051Z,1013.91
2022-08-28T05:58:05.079Z,1013.93
2022-08-28T05:59:05.102Z,1013.95
2022-08-28T06:00:05.140Z,1013.93
2022-08-28T06:01:05.156Z,1013.94
2022-08-28T06:02:05.200Z,1013.92
2022-08-28T06:03:05.225Z,1013.94
2022-08-28T06:04:05.332Z,1013.97
2022-08-28T06:05:05.255Z,1013.97
2022-08-28T06:06:05.288Z,1013.97
2022-08-28T06:07:05.308Z,1013.98
2022-08-28T06:08:05.335Z,1013.98
2022-08-28T06:09:05.361Z,1013.96
2022-08-28T06:10:05.387Z,1013.98
2022-08-28T06:11:05.410Z,1014.00
2022-08-28T06:12:05.440Z,1013.96
2022-08-28T06:13:05.464Z,1013.95
2022-08-28T06:14:05.491Z,1013.95
2022-08-28T06:15:05.514Z,1013.99
2022-08-28T06:16:05.576Z,1014.01
2022-08-28T06:17:05.570Z,1014.01
2022-08-28T06:18:05.599Z,1014.02
2022-08-28T06:19:05.624Z,1013.99
2022-08-28T06:20:05.649Z,1014.01
2022-08-28T06:21:05.673Z,1014.03
2022-08-28T06:22:07.014Z,1014.00
2022-08-28T06:23:05.727Z,1014.01
2022-08-28T06:24:05.754Z,1014.06
2022-08-28T06:25:08.020Z,1014.04
2022-08-28T06:26:05.807Z,1014.01
2022-08-28T06:27:05.837Z,1014.03
2022-08-28T06:28:05.898Z,1014.04
2022-08-28T06:29:05.883Z,1014.07
2022-08-28T06:30:05.919Z,1014.08
2022-08-28T06:31:24.519Z,1014.09
2022-08-28T06:32:06.011Z,1014.12
2022-08-28T06:33:05.991Z,1014.10
2022-08-28T06:34:07.518Z,1014.12
2022-08-28T06:35:06.046Z,1014.13
2022-08-28T06:36:06.078Z,1014.14
2022-08-28T06:37:06.099Z,1014.17
2022-08-28T06:38:06.144Z,1014.19
2022-08-28T06:39:06.152Z,1014.18
2022-08-28T06:40:06.236Z,1014.22
2022-08-28T06:41:06.209Z,1014.21
2022-08-28T06:42:06.250Z,1014.22
2022-08-28T06:43:06.261Z,1014.21
2022-08-28T06:44:06.291Z,1014.22
2022-08-28T06:45:06.318Z,1014.22
2022-08-28T06:46:06.390Z,1014.23
2022-08-28T06:47:06.374Z,1014.22
2022-08-28T06:48:06.399Z,1014.23
2022-08-28T06:49:06.429Z,1014.21
2022-08-28T06:50:06.451Z,1014.25
2022-08-28T06:51:06.481Z,1014.29
2022-08-28T06:52:06.509Z,1014.26
2022-08-28T06:53:06.538Z,1014.26
2022-08-28T06:54:06.570Z,1014.24
2022-08-28T06:55:06.596Z,1014.27
2022-08-28T06:56:06.625Z,1014.25
2022-08-28T06:57:06.653Z,1014.24
2022-08-28T06:58:06.697Z,1014.28
2022-08-28T06:59:06.706Z,1014.28
2022-08-28T07:00:06.734Z,1014.28
2022-08-28T07:01:06.781Z,1014.27
2022-08-28T07:02:06.909Z,1014.27
2022-08-28T07:03:06.818Z,1014.30
2022-08-28T07:04:06.852Z,1014.26
2022-08-28T07:05:06.872Z,1014.29
2022-08-28T07:06:06.898Z,1014.29
2022-08-28T07:07:06.926Z,1014.25
2022-08-28T07:08:06.958Z,1014.28
2022-08-28T07:09:06.981Z,1014.31
2022-08-28T07:10:07.009Z,1014.31
2022-08-28T07:11:07.038Z,1014.31
2022-08-28T07:12:07.065Z,1014.33
2022-08-28T07:13:07.094Z,1014.35
2022-08-28T07:14:07.124Z,1014.35
2022-08-28T07:15:07.172Z,1014.35
2022-08-28T07:16:07.255Z,1014.37
2022-08-28T07:17:07.198Z,1014.35
2022-08-28T07:18:07.231Z,1014.38
2022-08-28T07:19:07.255Z,1014.40
2022-08-28T07:20:07.280Z,1014.37
2022-08-28T07:21:12.082Z,1014.37
2022-08-28T07:23:50.540Z,1014.36
2022-08-28T07:24:50.098Z,1014.37
2022-08-28T07:26:54.128Z,1014.36
2022-08-28T07:27:54.147Z,1014.38
2022-08-28T07:29:59.138Z,1014.37
2022-08-28T07:30:58.739Z,1014.35
2022-08-28T07:31:58.704Z,1014.35
2022-08-28T07:32:58.739Z,1014.33
2022-08-28T07:33:58.761Z,1014.32
2022-08-28T07:34:58.793Z,1014.31
2022-08-28T07:35:58.815Z,1014.31
2022-08-28T07:36:58.841Z,1014.28
2022-08-28T07:37:58.869Z,1014.27
2022-08-28T07:38:58.922Z,1014.34
2022-08-28T07:39:58.961Z,1014.28
2022-08-28T07:40:58.953Z,1014.27
2022-08-28T07:41:58.979Z,1014.28
2022-08-28T07:42:59.007Z,1014.28
2022-08-28T07:43:59.040Z,1014.29
2022-08-28T07:44:59.064Z,1014.29
2022-08-28T07:45:59.126Z,1014.28
2022-08-28T07:46:59.129Z,1014.24
2022-08-28T07:47:59.147Z,1014.27
2022-08-28T07:48:59.171Z,1014.26
2022-08-28T07:49:59.202Z,1014.28
2022-08-28T07:50:59.229Z,1014.24
2022-08-28T07:51:59.255Z,1014.28
2022-08-28T07:52:59.283Z,1014.30
2022-08-28T07:53:59.309Z,1014.29
2022-08-28T07:54:59.359Z,1014.33
2022-08-28T07:55:59.367Z,1014.30
2022-08-28T07:56:59.396Z,1014.35
2022-08-28T07:57:59.426Z,1014.35
2022-08-28T07:58:59.461Z,1014.37
2022-08-28T07:59:59.477Z,1014.36
2022-08-28T08:00:59.507Z,1014.44
2022-08-28T08:01:59.535Z,1014.39
2022-08-28T08:02:59.738Z,1014.49
2022-08-28T08:04:01.848Z,1014.42
2022-08-28T08:04:59.616Z,1014.41
2022-08-28T08:05:59.643Z,1014.42
2022-08-28T08:06:59.674Z,1014.45
2022-08-28T08:07:59.701Z,1014.46
2022-08-28T08:08:59.727Z,1014.49
2022-08-28T08:09:59.761Z,1014.51
2022-08-28T08:10:59.784Z,1014.50
2022-08-28T08:11:59.815Z,1014.47
2022-08-28T08:12:59.844Z,1014.47
2022-08-28T08:13:59.877Z,1014.48
2022-08-28T08:15:07.072Z,1014.48
2022-08-28T08:17:04.398Z,1014.49
2022-08-28T08:18:03.942Z,1014.55
2022-08-28T08:20:07.968Z,1014.51
2022-08-28T08:21:07.989Z,1014.55
2022-08-28T08:23:12.488Z,1014.55
2022-08-28T08:24:12.031Z,1014.55
2022-08-28T08:26:16.055Z,1014.53
2022-08-28T08:27:16.078Z,1014.55
2022-08-28T08:29:20.579Z,1014.57
2022-08-28T08:30:20.119Z,1014.57
2022-08-28T08:32:24.152Z,1014.57
2022-08-28T08:33:24.170Z,1014.57
2022-08-28T08:35:28.673Z,1014.56
2022-08-28T08:36:28.218Z,1014.51
2022-08-28T08:38:32.245Z,1014.50
2022-08-28T08:39:32.437Z,1014.57
2022-08-28T08:41:36.769Z,1014.57
2022-08-28T08:42:36.314Z,1014.60
2022-08-28T08:44:40.840Z,1014.54
2022-08-28T08:45:40.551Z,1014.53
2022-08-28T08:47:34.032Z,1014.56
2022-08-28T08:48:33.716Z,1014.54
2022-08-28T08:50:26.660Z,1014.57
2022-08-28T08:51:26.684Z,1014.53
2022-08-28T08:53:31.186Z,1014.57
2022-08-28T08:54:30.733Z,1014.59
2022-08-28T08:56:35.359Z,1014.60
2022-08-28T08:57:34.790Z,1014.62
2022-08-28T08:59:39.293Z,1014.60
2022-08-28T09:00:38.835Z,1014.59
2022-08-28T09:02:42.877Z,1014.61
2022-08-28T09:03:44.042Z,1014.62
2022-08-28T09:05:36.869Z,1014.64
2022-08-28T09:06:36.053Z,1014.59
2022-08-28T09:08:40.095Z,1014.58
2022-08-28T09:09:40.106Z,1014.53
2022-08-28T09:11:44.607Z,1014.59
2022-08-28T09:12:44.153Z,1014.61
2022-08-28T09:14:48.671Z,1014.61
2022-08-28T09:15:50.733Z,1014.67
2022-08-28T09:16:48.724Z,1014.73
2022-08-28T09:17:48.747Z,1014.68
2022-08-28T09:18:48.778Z,1014.69
2022-08-28T09:19:48.811Z,1014.67
2022-08-28T09:20:48.843Z,1014.69
2022-08-28T09:21:48.873Z,1014.72
2022-08-28T09:22:48.900Z,1014.67
2022-08-28T09:23:48.929Z,1014.66
2022-08-28T09:24:48.964Z,1014.67
2022-08-28T09:25:48.986Z,1014.69
2022-08-28T09:26:49.015Z,1014.59
2022-08-28T09:27:49.048Z,1014.65
2022-08-28T09:28:49.074Z,1014.64
2022-08-28T09:29:49.104Z,1014.65
2022-08-28T09:30:49.161Z,1014.64
2022-08-28T09:31:49.166Z,1014.71
2022-08-28T09:32:49.193Z,1014.70
2022-08-28T09:33:49.220Z,1014.66
2022-08-28T09:34:49.253Z,1014.72
2022-08-28T09:35:49.281Z,1014.72
2022-08-28T09:36:49.311Z,1014.77
2022-08-28T09:37:49.341Z,1014.71
2022-08-28T09:38:49.384Z,1014.70
2022-08-28T09:39:49.395Z,1014.72
2022-08-28T09:40:49.428Z,1014.73
2022-08-28T09:41:49.459Z,1014.73
2022-08-28T09:42:49.492Z,1014.68
2022-08-28T09:43:49.518Z,1014.72
2022-08-28T09:44:51.372Z,1014.74
2022-08-28T09:45:49.598Z,1014.76
2022-08-28T09:46:49.681Z,1014.69
2022-08-28T09:47:49.645Z,1014.68
2022-08-28T09:48:49.664Z,1014.72
2022-08-28T09:49:49.708Z,1014.64
2022-08-28T09:50:49.721Z,1014.66
2022-08-28T09:51:49.752Z,1014.69
2022-08-28T09:52:49.781Z,1014.64
2022-08-28T09:53:49.804Z,1014.67
2022-08-28T09:54:49.838Z,1014.65
2022-08-28T09:55:49.865Z,1014.61
2022-08-28T09:56:49.896Z,1014.62
2022-08-28T09:57:49.923Z,1014.69
2022-08-28T09:58:49.953Z,1014.65
2022-08-28T09:59:49.988Z,1014.65
2022-08-28T10:00:50.010Z,1014.70
2022-08-28T10:01:50.080Z,1014.69
2022-08-28T10:02:50.067Z,1014.72
2022-08-28T10:03:50.098Z,1014.68
2022-08-28T10:04:50.202Z,1014.67
2022-08-28T10:05:50.165Z,1014.61
2022-08-28T10:06:50.186Z,1014.59
2022-08-28T10:07:50.216Z,1014.61
2022-08-28T10:08:50.246Z,1014.61
2022-08-28T10:09:50.274Z,1014.59
2022-08-28T10:10:50.306Z,1014.57
2022-08-28T10:11:50.329Z,1014.52
2022-08-28T10:12:50.365Z,1014.57
2022-08-28T10:13:50.389Z,1014.63
2022-08-28T10:14:50.420Z,1014.58
2022-08-28T10:15:50.473Z,1014.60
2022-08-28T10:16:50.477Z,1014.62
2022-08-28T10:17:50.509Z,1014.63
2022-08-28T10:18:50.537Z,1014.63
2022-08-28T10:19:50.565Z,1014.55
2022-08-28T10:20:50.594Z,1014.58
2022-08-28T10:21:50.622Z,1014.59
2022-08-28T10:22:50.653Z,1014.58
2022-08-28T10:23:50.683Z,1014.56
2022-08-28T10:24:50.710Z,1014.59
2022-08-28T10:25:50.741Z,1014.56
2022-08-28T10:26:50.771Z,1014.57
2022-08-28T10:27:50.797Z,1014.54
2022-08-28T10:28:50.822Z,1014.54
2022-08-28T10:29:50.859Z,1014.54
2022-08-28T10:30:50.980Z,1014.49
2022-08-28T10:31:50.916Z,1014.51
2022-08-28T10:32:50.945Z,1014.56
2022-08-28T10:33:50.976Z,1014.56
2022-08-28T10:34:51.007Z,1014.58
2022-08-28T10:35:51.036Z,1014.58
2022-08-28T10:36:51.064Z,1014.59
2022-08-28T10:37:51.097Z,1014.58
2022-08-28T10:38:51.323Z,1014.53
2022-08-28T10:39:51.154Z,1014.57
2022-08-28T10:40:51.185Z,1014.60
2022-08-28T10:41:51.212Z,1014.58
2022-08-28T10:42:51.245Z,1014.53
2022-08-28T10:43:51.274Z,1014.51
2022-08-28T10:44:51.303Z,1014.54
2022-08-28T10:45:51.367Z,1014.53
2022-08-28T10:46:51.366Z,1014.51
2022-08-28T10:47:51.393Z,1014.53
2022-08-28T10:48:51.419Z,1014.51
2022-08-28T10:49:51.467Z,1014.49
2022-08-28T10:50:51.486Z,1014.50
2022-08-28T10:51:51.519Z,1014.50
2022-08-28T10:52:51.545Z,1014.49
2022-08-28T10:53:51.574Z,1014.52
2022-08-28T10:54:51.600Z,1014.52
2022-08-28T10:55:51.631Z,1014.50
2022-08-28T10:56:56.397Z,1014.51
2022-08-28T10:57:51.689Z,1014.44
2022-08-28T10:58:51.719Z,1014.49
2022-08-28T10:59:51.749Z,1014.46
2022-08-28T11:00:51.776Z,1014.45
2022-08-28T11:01:51.851Z,1014.38
2022-08-28T11:02:51.943Z,1014.48
2022-08-28T11:03:51.865Z,1014.47
2022-08-28T11:04:55.315Z,1014.46
2022-08-28T11:05:53.848Z,1014.47
2022-08-28T11:06:51.955Z,1014.48
2022-08-28T11:07:51.982Z,1014.46
2022-08-28T11:08:52.035Z,1014.47
2022-08-28T11:09:52.041Z,1014.48
2022-08-28T11:10:52.073Z,1014.45
2022-08-28T11:11:52.102Z,1014.51
2022-08-28T11:12:52.132Z,1014.48
2022-08-28T11:13:52.164Z,1014.50
2022-08-28T11:14:52.193Z,1014.49
2022-08-28T11:15:52.225Z,1014.52
2022-08-28T11:16:52.307Z,1014.46
2022-08-28T11:17:52.280Z,1014.49
2022-08-28T11:18:52.308Z,1014.50
2022-08-28T11:19:52.647Z,1014.46
2022-08-28T11:20:52.367Z,1014.44
2022-08-28T11:21:52.397Z,1014.45
2022-08-28T11:22:52.423Z,1014.46
2022-08-28T11:23:52.458Z,1014.49
2022-08-28T11:24:52.490Z,1014.47
2022-08-28T11:25:52.516Z,1014.44
2022-08-28T11:26:52.547Z,1014.49
2022-08-28T11:27:52.577Z,1014.53
2022-08-28T11:28:52.607Z,1014.50
2022-08-28T11:29:52.651Z,1014.55
2022-08-28T11:30:52.696Z,1014.55
2022-08-28T11:31:52.704Z,1014.61
2022-08-28T11:32:52.725Z,1014.58
2022-08-28T11:33:52.759Z,1014.56
2022-08-28T11:34:52.787Z,1014.50
2022-08-28T11:35:52.817Z,1014.50
2022-08-28T11:36:52.844Z,1014.45
2022-08-28T11:37:52.876Z,1014.48
2022-08-28T11:38:52.907Z,1014.49
2022-08-28T11:39:53.022Z,1014.46
2022-08-28T11:40:52.965Z,1014.43
2022-08-28T11:41:52.998Z,1014.42
2022-08-28T11:42:53.026Z,1014.43
2022-08-28T11:43:53.057Z,1014.40
2022-08-28T11:44:53.087Z,1014.43
2022-08-28T11:45:53.160Z,1014.43
2022-08-28T11:46:53.148Z,1014.41
2022-08-28T11:47:53.179Z,1014.43
2022-08-28T11:48:53.208Z,1014.47
2022-08-28T11:49:53.237Z,1014.42
2022-08-28T11:50:53.268Z,1014.42
2022-08-28T11:51:53.298Z,1014.46
2022-08-28T11:52:53.326Z,1014.46
2022-08-28T11:53:53.360Z,1014.40
2022-08-28T11:54:53.386Z,1014.47
2022-08-28T11:55:53.420Z,1014.46
2022-08-28T11:56:53.454Z,1014.46
2022-08-28T11:57:53.476Z,1014.43
2022-08-28T11:58:53.508Z,1014.44
2022-08-28T11:59:53.541Z,1014.43
2022-08-28T12:00:53.579Z,1014.39
2022-08-28T12:01:53.600Z,1014.34
2022-08-28T12:02:53.651Z,1014.37
2022-08-28T12:03:53.732Z,1014.35
2022-08-28T12:04:53.685Z,1014.38
2022-08-28T12:05:53.718Z,1014.34
2022-08-28T12:06:53.744Z,1014.34
2022-08-28T12:07:53.779Z,1014.37
2022-08-28T12:08:53.807Z,1014.37
2022-08-28T12:09:53.838Z,1014.32
2022-08-28T12:10:53.863Z,1014.46
2022-08-28T12:11:53.898Z,1014.33
2022-08-28T12:12:53.926Z,1014.42
2022-08-28T12:13:53.959Z,1014.42
2022-08-28T12:14:53.987Z,1014.47
2022-08-28T12:15:54.061Z,1014.42
2022-08-28T12:16:54.044Z,1014.40
2022-08-28T12:17:54.075Z,1014.37
2022-08-28T12:18:54.105Z,1014.33
2022-08-28T12:19:55.918Z,1014.40
2022-08-28T12:20:54.165Z,1014.29
2022-08-28T12:21:54.193Z,1014.36
2022-08-28T12:22:54.226Z,1014.30
2022-08-28T12:23:57.032Z,1014.34
2022-08-28T12:24:54.285Z,1014.27
2022-08-28T12:25:54.312Z,1014.33
2022-08-28T12:26:54.357Z,1014.31
2022-08-28T12:27:54.377Z,1014.29
2022-08-28T12:28:54.433Z,1014.29
2022-08-28T12:29:54.436Z,1014.28
2022-08-28T12:30:54.512Z,1014.29